sensor_id;sensor_type;location;lat;lon;timestamp;P1;durP1;ratioP1;P2;durP2;ratioP2
23722;SDS011;12042;52.136;5.584;2022-07-23T05:26:45;5.85;;;5.45;;
23722;SDS011;12042;52.136;5.584;2022-07-23T05:29:11;6.28;;;5.85;;
23722;SDS011;12042;52.136;5.584;2022-07-23T05:31:36;6.47;;;5.97;;
23722;SDS011;12042;52.136;5.584;2022-07-23T05:34:02;5.75;;;5.30;;
23722;SDS011;12042;52.136;5.584;2022-07-23T05:36:27;6.72;;;5.38;;
23722;SDS011;12042;52.136;5.584;2022-07-23T05:38:53;8.52;;;5.80;;
23722;SDS011;12042;52.136;5.584;2022-07-23T05:41:19;6.40;;;5.80;;
23722;SDS011;12042;52.136;5.584;2022-07-23T05:43:52;5.43;;;5.00;;
23722;SDS011;12042;52.136;5.584;2022-07-23T05:46:18;4.90;;;4.60;;
23722;SDS011;12042;52.136;5.584;2022-07-23T05:48:44;5.53;;;5.03;;
23722;SDS011;12042;52.136;5.584;2022-07-23T05:51:18;4.78;;;4.43;;
23722;SDS011;12042;52.136;5.584;2022-07-23T05:53:58;5.63;;;4.97;;
23722;SDS011;12042;52.136;5.584;2022-07-23T05:56:23;5.07;;;4.65;;
23722;SDS011;12042;52.136;5.584;2022-07-23T05:58:49;5.10;;;4.30;;
23722;SDS011;12042;52.136;5.584;2022-07-23T06:03:55;4.65;;;4.35;;
23722;SDS011;12042;52.136;5.584;2022-07-23T06:06:23;6.30;;;4.63;;
23722;SDS011;12042;52.136;5.584;2022-07-23T06:08:49;4.43;;;4.13;;
23722;SDS011;12042;52.136;5.584;2022-07-23T06:11:15;4.20;;;3.90;;
23722;SDS011;12042;52.136;5.584;2022-07-23T06:13:40;4.05;;;3.75;;
23722;SDS011;12042;52.136;5.584;2022-07-23T06:16:06;4.43;;;3.90;;
23722;SDS011;12042;52.136;5.584;2022-07-23T06:18:31;4.40;;;3.90;;
23722;SDS011;12042;52.136;5.584;2022-07-23T06:20:57;5.95;;;4.47;;
23722;SDS011;12042;52.136;5.584;2022-07-23T06:23:22;4.68;;;4.25;;
23722;SDS011;12042;52.136;5.584;2022-07-23T06:25:48;5.10;;;4.70;;
23722;SDS011;12042;52.136;5.584;2022-07-23T06:28:14;5.32;;;4.35;;
23722;SDS011;12042;52.136;5.584;2022-07-23T06:30:40;5.63;;;4.30;;
23722;SDS011;12042;52.136;5.584;2022-07-23T06:33:06;4.60;;;4.20;;
23722;SDS011;12042;52.136;5.584;2022-07-23T06:35:31;5.25;;;3.70;;
23722;SDS011;12042;52.136;5.584;2022-07-23T06:37:58;5.40;;;4.20;;
23722;SDS011;12042;52.136;5.584;2022-07-23T06:40:24;6.72;;;3.90;;
23722;SDS011;12042;52.136;5.584;2022-07-23T06:42:49;4.28;;;3.85;;
23722;SDS011;12042;52.136;5.584;2022-07-23T06:45:15;4.40;;;4.00;;
23722;SDS011;12042;52.136;5.584;2022-07-23T06:47:40;5.57;;;3.97;;
23722;SDS011;12042;52.136;5.584;2022-07-23T06:50:07;10.13;;;4.47;;
23722;SDS011;12042;52.136;5.584;2022-07-23T06:52:48;5.57;;;4.22;;
23722;SDS011;12042;52.136;5.584;2022-07-23T06:55:14;4.90;;;4.00;;
23722;SDS011;12042;52.136;5.584;2022-07-23T06:57:47;4.82;;;4.30;;
23722;SDS011;12042;52.136;5.584;2022-07-23T07:00:17;5.72;;;3.90;;
23722;SDS011;12042;52.136;5.584;2022-07-23T07:02:43;4.40;;;3.95;;
23722;SDS011;12042;52.136;5.584;2022-07-23T07:05:09;7.43;;;4.38;;
23722;SDS011;12042;52.136;5.584;2022-07-23T07:07:34;4.93;;;4.20;;
23722;SDS011;12042;52.136;5.584;2022-07-23T07:10:01;5.82;;;4.20;;
23722;SDS011;12042;52.136;5.584;2022-07-23T07:12:27;7.88;;;3.50;;
23722;SDS011;12042;52.136;5.584;2022-07-23T07:14:53;4.55;;;4.15;;
23722;SDS011;12042;52.136;5.584;2022-07-23T07:17:19;3.90;;;3.60;;
23722;SDS011;12042;52.136;5.584;2022-07-23T07:19:44;4.45;;;3.50;;
23722;SDS011;12042;52.136;5.584;2022-07-23T07:22:10;3.42;;;3.17;;
23722;SDS011;12042;52.136;5.584;2022-07-23T07:24:35;5.90;;;3.30;;
23722;SDS011;12042;52.136;5.584;2022-07-23T07:27:01;6.20;;;2.88;;
23722;SDS011;12042;52.136;5.584;2022-07-23T07:29:27;2.60;;;2.40;;
23722;SDS011;12042;52.136;5.584;2022-07-23T07:31:53;4.85;;;2.83;;
23722;SDS011;12042;52.136;5.584;2022-07-23T07:34:20;3.63;;;3.33;;
23722;SDS011;12042;52.136;5.584;2022-07-23T07:36:45;4.75;;;2.63;;
23722;SDS011;12042;52.136;5.584;2022-07-23T07:39:11;3.67;;;2.70;;
23722;SDS011;12042;52.136;5.584;2022-07-23T07:41:37;2.90;;;2.70;;
23722;SDS011;12042;52.136;5.584;2022-07-23T07:44:03;4.65;;;2.72;;
23722;SDS011;12042;52.136;5.584;2022-07-23T07:46:29;2.38;;;2.17;;
23722;SDS011;12042;52.136;5.584;2022-07-23T07:48:55;2.22;;;2.10;;
23722;SDS011;12042;52.136;5.584;2022-07-23T07:51:21;9.18;;;3.03;;
23722;SDS011;12042;52.136;5.584;2022-07-23T07:53:47;6.15;;;2.67;;
23722;SDS011;12042;52.136;5.584;2022-07-23T07:56:13;4.05;;;2.70;;
23722;SDS011;12042;52.136;5.584;2022-07-23T07:58:39;5.40;;;4.50;;
23722;SDS011;12042;52.136;5.584;2022-07-23T08:01:04;3.80;;;3.50;;
23722;SDS011;12042;52.136;5.584;2022-07-23T08:03:30;4.18;;;3.83;;
23722;SDS011;12042;52.136;5.584;2022-07-23T08:05:56;4.95;;;4.55;;
23722;SDS011;12042;52.136;5.584;2022-07-23T08:08:22;4.65;;;3.90;;
23722;SDS011;12042;52.136;5.584;2022-07-23T08:10:47;4.30;;;3.83;;
23722;SDS011;12042;52.136;5.584;2022-07-23T08:13:13;3.90;;;3.60;;
23722;SDS011;12042;52.136;5.584;2022-07-23T08:15:40;4.00;;;3.70;;
23722;SDS011;12042;52.136;5.584;2022-07-23T08:18:06;5.00;;;3.55;;
23722;SDS011;12042;52.136;5.584;2022-07-23T08:20:31;4.03;;;3.53;;
23722;SDS011;12042;52.136;5.584;2022-07-23T08:23:04;2.60;;;2.50;;
23722;SDS011;12042;52.136;5.584;2022-07-23T08:25:32;3.05;;;2.63;;
23722;SDS011;12042;52.136;5.584;2022-07-23T08:28:06;3.10;;;2.25;;
23722;SDS011;12042;52.136;5.584;2022-07-23T08:30:33;2.85;;;2.75;;
23722;SDS011;12042;52.136;5.584;2022-07-23T08:33:05;3.53;;;3.00;;
23722;SDS011;12042;52.136;5.584;2022-07-23T08:35:37;4.55;;;3.10;;
23722;SDS011;12042;52.136;5.584;2022-07-23T08:38:05;4.88;;;2.10;;
23722;SDS011;12042;52.136;5.584;2022-07-23T08:40:36;4.50;;;1.80;;
23722;SDS011;12042;52.136;5.584;2022-07-23T08:43:18;2.00;;;1.90;;
23722;SDS011;12042;52.136;5.584;2022-07-23T08:45:56;2.35;;;2.17;;
23722;SDS011;12042;52.136;5.584;2022-07-23T08:48:26;3.22;;;2.10;;
23722;SDS011;12042;52.136;5.584;2022-07-23T08:50:59;2.60;;;1.90;;
23722;SDS011;12042;52.136;5.584;2022-07-23T08:53:27;2.42;;;1.63;;
23722;SDS011;12042;52.136;5.584;2022-07-23T08:55:55;2.20;;;2.00;;
23722;SDS011;12042;52.136;5.584;2022-07-23T08:58:22;2.00;;;1.90;;
23722;SDS011;12042;52.136;5.584;2022-07-23T09:00:48;2.10;;;1.70;;
23722;SDS011;12042;52.136;5.584;2022-07-23T09:03:21;2.83;;;1.98;;
23722;SDS011;12042;52.136;5.584;2022-07-23T09:06:00;1.90;;;1.60;;
23722;SDS011;12042;52.136;5.584;2022-07-23T09:08:41;4.03;;;1.67;;
23722;SDS011;12042;52.136;5.584;2022-07-23T09:11:12;1.88;;;1.77;;
23722;SDS011;12042;52.136;5.584;2022-07-23T09:13:48;1.77;;;1.40;;
23722;SDS011;12042;52.136;5.584;2022-07-23T09:16:24;3.03;;;1.50;;
23722;SDS011;12042;52.136;5.584;2022-07-23T09:18:52;2.55;;;1.20;;
23722;SDS011;12042;52.136;5.584;2022-07-23T09:21:24;2.58;;;1.55;;
23722;SDS011;12042;52.136;5.584;2022-07-23T09:31:46;1.70;;;1.48;;
23722;SDS011;12042;52.136;5.584;2022-07-23T09:34:24;1.45;;;1.00;;
23722;SDS011;12042;52.136;5.584;2022-07-23T09:37:17;2.08;;;1.02;;
23722;SDS011;12042;52.136;5.584;2022-07-23T09:39:44;1.00;;;1.00;;
23722;SDS011;12042;52.136;5.584;2022-07-23T09:42:15;1.10;;;1.00;;
23722;SDS011;12042;52.136;5.584;2022-07-23T09:44:43;4.25;;;1.50;;
23722;SDS011;12042;52.136;5.584;2022-07-23T09:47:09;1.10;;;1.10;;
23722;SDS011;12042;52.136;5.584;2022-07-23T09:49:35;1.00;;;0.90;;
23722;SDS011;12042;52.136;5.584;2022-07-23T09:52:01;1.65;;;1.15;;
23722;SDS011;12042;52.136;5.584;2022-07-23T09:56:57;1.55;;;1.42;;
23722;SDS011;12042;52.136;5.584;2022-07-23T09:59:29;2.03;;;1.40;;
23722;SDS011;12042;52.136;5.584;2022-07-23T10:02:19;1.60;;;1.30;;
23722;SDS011;12042;52.136;5.584;2022-07-23T10:04:49;1.52;;;1.42;;
23722;SDS011;12042;52.136;5.584;2022-07-23T10:07:27;1.20;;;1.10;;
23722;SDS011;12042;52.136;5.584;2022-07-23T10:10:08;1.40;;;1.30;;
23722;SDS011;12042;52.136;5.584;2022-07-23T10:15:54;2.83;;;1.17;;
23722;SDS011;12042;52.136;5.584;2022-07-23T10:21:34;1.58;;;1.20;;
23722;SDS011;12042;52.136;5.584;2022-07-23T10:58:06;1.70;;;1.60;;
23722;SDS011;12042;52.136;5.584;2022-07-23T11:00:43;2.08;;;1.40;;
23722;SDS011;12042;52.136;5.584;2022-07-23T11:03:28;1.65;;;1.48;;
23722;SDS011;12042;52.136;5.584;2022-07-23T11:05:57;2.90;;;1.60;;
23722;SDS011;12042;52.136;5.584;2022-07-23T11:08:23;1.60;;;1.50;;
23722;SDS011;12042;52.136;5.584;2022-07-23T11:10:50;3.00;;;1.52;;
23722;SDS011;12042;52.136;5.584;2022-07-23T11:24:10;1.50;;;1.23;;
23722;SDS011;12042;52.136;5.584;2022-07-23T11:32:00;1.20;;;1.10;;
23722;SDS011;12042;52.136;5.584;2022-07-23T11:34:30;1.30;;;1.13;;
23722;SDS011;12042;52.136;5.584;2022-07-23T11:37:01;1.10;;;1.10;;
23722;SDS011;12042;52.136;5.584;2022-07-23T11:39:29;3.75;;;1.10;;
23722;SDS011;12042;52.136;5.584;2022-07-23T11:41:55;1.75;;;1.02;;
23722;SDS011;12042;52.136;5.584;2022-07-23T11:44:28;2.65;;;1.50;;
23722;SDS011;12042;52.136;5.584;2022-07-23T11:49:26;1.50;;;1.40;;
23722;SDS011;12042;52.136;5.584;2022-07-23T11:52:12;1.40;;;1.30;;
23722;SDS011;12042;52.136;5.584;2022-07-23T11:54:52;1.95;;;1.60;;
23722;SDS011;12042;52.136;5.584;2022-07-23T11:57:29;2.80;;;1.58;;
23722;SDS011;12042;52.136;5.584;2022-07-23T12:02:36;3.45;;;1.70;;
23722;SDS011;12042;52.136;5.584;2022-07-23T12:05:03;2.17;;;1.45;;
23722;SDS011;12042;52.136;5.584;2022-07-23T12:10:10;2.03;;;1.40;;
23722;SDS011;12042;52.136;5.584;2022-07-23T12:12:43;1.40;;;1.30;;
23722;SDS011;12042;52.136;5.584;2022-07-23T12:15:10;2.83;;;1.42;;
23722;SDS011;12042;52.136;5.584;2022-07-23T12:17:38;2.03;;;1.80;;
23722;SDS011;12042;52.136;5.584;2022-07-23T12:20:08;2.78;;;1.52;;
23722;SDS011;12042;52.136;5.584;2022-07-23T12:22:39;2.28;;;1.60;;
23722;SDS011;12042;52.136;5.584;2022-07-23T12:25:08;1.70;;;1.60;;
23722;SDS011;12042;52.136;5.584;2022-07-23T12:27:37;3.58;;;1.90;;
23722;SDS011;12042;52.136;5.584;2022-07-23T12:30:21;3.30;;;1.60;;
23722;SDS011;12042;52.136;5.584;2022-07-23T12:32:55;2.78;;;1.17;;
23722;SDS011;12042;52.136;5.584;2022-07-23T12:35:23;1.67;;;1.58;;
23722;SDS011;12042;52.136;5.584;2022-07-23T12:37:59;1.77;;;1.33;;
23722;SDS011;12042;52.136;5.584;2022-07-23T12:40:32;1.98;;;1.40;;
23722;SDS011;12042;52.136;5.584;2022-07-23T12:45:52;1.80;;;1.70;;
23722;SDS011;12042;52.136;5.584;2022-07-23T12:48:29;1.60;;;1.50;;
23722;SDS011;12042;52.136;5.584;2022-07-23T12:51:00;1.42;;;1.38;;
23722;SDS011;12042;52.136;5.584;2022-07-23T12:53:37;2.47;;;1.17;;
23722;SDS011;12042;52.136;5.584;2022-07-23T12:56:07;1.75;;;1.65;;
23722;SDS011;12042;52.136;5.584;2022-07-23T12:58:55;1.70;;;1.60;;
23722;SDS011;12042;52.136;5.584;2022-07-23T13:06:20;2.08;;;1.60;;
23722;SDS011;12042;52.136;5.584;2022-07-23T13:08:46;2.05;;;1.30;;
23722;SDS011;12042;52.136;5.584;2022-07-23T13:11:11;1.92;;;1.50;;
23722;SDS011;12042;52.136;5.584;2022-07-23T13:13:37;2.03;;;1.50;;
23722;SDS011;12042;52.136;5.584;2022-07-23T13:16:03;1.73;;;1.10;;
23722;SDS011;12042;52.136;5.584;2022-07-23T13:18:29;4.90;;;1.88;;
23722;SDS011;12042;52.136;5.584;2022-07-23T13:20:54;1.42;;;1.33;;
23722;SDS011;12042;52.136;5.584;2022-07-23T13:23:21;1.67;;;1.00;;
23722;SDS011;12042;52.136;5.584;2022-07-23T13:25:47;1.45;;;1.35;;
23722;SDS011;12042;52.136;5.584;2022-07-23T13:28:13;1.73;;;1.63;;
23722;SDS011;12042;52.136;5.584;2022-07-23T13:30:40;1.40;;;1.30;;
23722;SDS011;12042;52.136;5.584;2022-07-23T13:33:07;1.95;;;1.75;;
23722;SDS011;12042;52.136;5.584;2022-07-23T13:35:33;1.80;;;1.70;;
23722;SDS011;12042;52.136;5.584;2022-07-23T13:38:00;1.65;;;1.55;;
23722;SDS011;12042;52.136;5.584;2022-07-23T13:40:27;1.98;;;1.73;;
23722;SDS011;12042;52.136;5.584;2022-07-23T13:42:53;1.75;;;1.55;;
23722;SDS011;12042;52.136;5.584;2022-07-23T13:45:18;1.80;;;1.70;;
23722;SDS011;12042;52.136;5.584;2022-07-23T13:47:44;1.80;;;1.70;;
23722;SDS011;12042;52.136;5.584;2022-07-23T13:50:10;1.88;;;1.77;;
23722;SDS011;12042;52.136;5.584;2022-07-23T13:52:35;1.45;;;1.35;;
23722;SDS011;12042;52.136;5.584;2022-07-23T13:55:02;2.20;;;1.27;;
23722;SDS011;12042;52.136;5.584;2022-07-23T13:57:30;2.90;;;1.70;;
23722;SDS011;12042;52.136;5.584;2022-07-23T13:59:56;3.00;;;1.70;;
23722;SDS011;12042;52.136;5.584;2022-07-23T14:02:21;2.03;;;1.60;;
23722;SDS011;12042;52.136;5.584;2022-07-23T14:04:47;1.50;;;1.40;;
23722;SDS011;12042;52.136;5.584;2022-07-23T14:07:13;1.60;;;1.45;;
23722;SDS011;12042;52.136;5.584;2022-07-23T14:09:39;1.73;;;1.45;;
23722;SDS011;12042;52.136;5.584;2022-07-23T14:12:07;1.52;;;1.42;;
23722;SDS011;12042;52.136;5.584;2022-07-23T14:14:33;4.00;;;1.45;;
23722;SDS011;12042;52.136;5.584;2022-07-23T14:16:58;2.22;;;1.77;;
23722;SDS011;12042;52.136;5.584;2022-07-23T14:19:26;1.70;;;1.60;;
23722;SDS011;12042;52.136;5.584;2022-07-23T14:21:52;4.80;;;1.40;;
23722;SDS011;12042;52.136;5.584;2022-07-23T14:24:17;2.38;;;1.40;;
23722;SDS011;12042;52.136;5.584;2022-07-23T14:26:43;1.70;;;1.50;;
23722;SDS011;12042;52.136;5.584;2022-07-23T14:29:08;1.40;;;1.30;;
23722;SDS011;12042;52.136;5.584;2022-07-23T14:31:34;1.63;;;1.40;;
23722;SDS011;12042;52.136;5.584;2022-07-23T14:34:00;1.70;;;1.45;;
23722;SDS011;12042;52.136;5.584;2022-07-23T14:36:26;2.58;;;1.60;;
23722;SDS011;12042;52.136;5.584;2022-07-23T14:38:52;1.70;;;1.60;;
23722;SDS011;12042;52.136;5.584;2022-07-23T14:41:17;2.38;;;1.60;;
23722;SDS011;12042;52.136;5.584;2022-07-23T14:43:43;1.52;;;1.42;;
23722;SDS011;12042;52.136;5.584;2022-07-23T14:46:09;1.77;;;1.67;;
23722;SDS011;12042;52.136;5.584;2022-07-23T14:48:36;2.63;;;1.67;;
23722;SDS011;12042;52.136;5.584;2022-07-23T14:51:02;1.50;;;1.40;;
23722;SDS011;12042;52.136;5.584;2022-07-23T14:53:28;2.15;;;1.45;;
23722;SDS011;12042;52.136;5.584;2022-07-23T14:55:54;1.67;;;1.58;;
23722;SDS011;12042;52.136;5.584;2022-07-23T14:58:21;1.80;;;1.70;;
23722;SDS011;12042;52.136;5.584;2022-07-23T15:00:50;1.70;;;1.58;;
23722;SDS011;12042;52.136;5.584;2022-07-23T15:03:16;1.73;;;1.63;;
23722;SDS011;12042;52.136;5.584;2022-07-23T15:05:42;1.73;;;1.63;;
23722;SDS011;12042;52.136;5.584;2022-07-23T15:08:08;1.73;;;1.63;;
23722;SDS011;12042;52.136;5.584;2022-07-23T15:10:33;1.70;;;1.60;;
23722;SDS011;12042;52.136;5.584;2022-07-23T15:12:59;2.85;;;1.85;;
23722;SDS011;12042;52.136;5.584;2022-07-23T15:15:25;2.42;;;1.70;;
23722;SDS011;12042;52.136;5.584;2022-07-23T15:17:50;3.45;;;1.70;;
23722;SDS011;12042;52.136;5.584;2022-07-23T15:20:16;3.55;;;1.73;;
23722;SDS011;12042;52.136;5.584;2022-07-23T15:22:41;1.42;;;1.33;;
23722;SDS011;12042;52.136;5.584;2022-07-23T15:25:07;1.48;;;1.38;;
23722;SDS011;12042;52.136;5.584;2022-07-23T15:27:33;1.70;;;1.60;;
23722;SDS011;12042;52.136;5.584;2022-07-23T15:29:59;1.77;;;1.67;;
23722;SDS011;12042;52.136;5.584;2022-07-23T15:32:24;2.30;;;1.60;;
23722;SDS011;12042;52.136;5.584;2022-07-23T15:34:51;2.65;;;1.50;;
23722;SDS011;12042;52.136;5.584;2022-07-23T15:37:17;1.92;;;1.75;;
23722;SDS011;12042;52.136;5.584;2022-07-23T15:39:43;2.08;;;1.70;;
23722;SDS011;12042;52.136;5.584;2022-07-23T15:42:09;1.80;;;1.70;;
23722;SDS011;12042;52.136;5.584;2022-07-23T15:44:34;2.95;;;1.88;;
23722;SDS011;12042;52.136;5.584;2022-07-23T15:47:00;5.75;;;1.95;;
23722;SDS011;12042;52.136;5.584;2022-07-23T15:49:26;1.92;;;1.70;;
23722;SDS011;12042;52.136;5.584;2022-07-23T15:51:52;2.00;;;1.90;;
23722;SDS011;12042;52.136;5.584;2022-07-23T15:54:19;4.55;;;1.80;;
23722;SDS011;12042;52.136;5.584;2022-07-23T15:56:46;2.28;;;1.77;;
23722;SDS011;12042;52.136;5.584;2022-07-23T15:59:11;3.38;;;1.50;;
23722;SDS011;12042;52.136;5.584;2022-07-23T16:01:37;1.98;;;1.55;;
23722;SDS011;12042;52.136;5.584;2022-07-23T16:04:03;2.42;;;1.80;;
23722;SDS011;12042;52.136;5.584;2022-07-23T16:06:29;1.70;;;1.60;;
23722;SDS011;12042;52.136;5.584;2022-07-23T16:08:57;1.70;;;1.60;;
23722;SDS011;12042;52.136;5.584;2022-07-23T16:11:25;1.70;;;1.60;;
23722;SDS011;12042;52.136;5.584;2022-07-23T16:13:50;1.73;;;1.63;;
23722;SDS011;12042;52.136;5.584;2022-07-23T16:16:16;2.08;;;1.58;;
23722;SDS011;12042;52.136;5.584;2022-07-23T16:18:42;2.17;;;1.65;;
23722;SDS011;12042;52.136;5.584;2022-07-23T16:21:07;2.22;;;1.70;;
23722;SDS011;12042;52.136;5.584;2022-07-23T16:23:33;1.90;;;1.80;;
23722;SDS011;12042;52.136;5.584;2022-07-23T16:25:59;1.60;;;1.50;;
23722;SDS011;12042;52.136;5.584;2022-07-23T16:28:24;2.38;;;1.67;;
23722;SDS011;12042;52.136;5.584;2022-07-23T16:30:50;1.60;;;1.50;;
23722;SDS011;12042;52.136;5.584;2022-07-23T16:33:16;3.17;;;1.70;;
23722;SDS011;12042;52.136;5.584;2022-07-23T16:35:41;1.55;;;1.50;;
23722;SDS011;12042;52.136;5.584;2022-07-23T16:38:07;1.80;;;1.70;;
23722;SDS011;12042;52.136;5.584;2022-07-23T16:40:33;1.73;;;1.63;;
23722;SDS011;12042;52.136;5.584;2022-07-23T16:42:59;1.90;;;1.50;;
23722;SDS011;12042;52.136;5.584;2022-07-23T16:45:24;2.35;;;1.85;;
23722;SDS011;12042;52.136;5.584;2022-07-23T16:47:50;2.00;;;1.80;;
23722;SDS011;12042;52.136;5.584;2022-07-23T16:50:16;4.47;;;1.70;;
23722;SDS011;12042;52.136;5.584;2022-07-23T16:52:42;2.38;;;1.80;;
23722;SDS011;12042;52.136;5.584;2022-07-23T16:55:08;2.10;;;1.75;;
23722;SDS011;12042;52.136;5.584;2022-07-23T16:57:34;1.70;;;1.55;;
23722;SDS011;12042;52.136;5.584;2022-07-23T17:00:00;2.20;;;2.00;;
23722;SDS011;12042;52.136;5.584;2022-07-23T17:02:26;1.80;;;1.60;;
23722;SDS011;12042;52.136;5.584;2022-07-23T17:04:52;3.58;;;2.00;;
23722;SDS011;12042;52.136;5.584;2022-07-23T17:07:18;2.10;;;2.00;;
23722;SDS011;12042;52.136;5.584;2022-07-23T17:09:44;2.00;;;1.63;;
23722;SDS011;12042;52.136;5.584;2022-07-23T17:12:10;2.40;;;2.10;;
23722;SDS011;12042;52.136;5.584;2022-07-23T17:14:35;2.00;;;1.90;;
23722;SDS011;12042;52.136;5.584;2022-07-23T17:17:02;2.30;;;2.17;;
23722;SDS011;12042;52.136;5.584;2022-07-23T17:19:28;4.05;;;2.05;;
23722;SDS011;12042;52.136;5.584;2022-07-23T17:21:54;5.97;;;2.30;;
23722;SDS011;12042;52.136;5.584;2022-07-23T17:24:20;2.45;;;2.20;;
23722;SDS011;12042;52.136;5.584;2022-07-23T17:26:46;4.25;;;2.45;;
23722;SDS011;12042;52.136;5.584;2022-07-23T17:29:12;3.47;;;2.13;;
23722;SDS011;12042;52.136;5.584;2022-07-23T17:31:38;2.25;;;2.15;;
23722;SDS011;12042;52.136;5.584;2022-07-23T17:34:04;2.30;;;2.10;;
23722;SDS011;12042;52.136;5.584;2022-07-23T17:36:29;2.40;;;2.20;;
23722;SDS011;12042;52.136;5.584;2022-07-23T17:38:55;2.20;;;2.00;;
23722;SDS011;12042;52.136;5.584;2022-07-23T17:41:21;2.13;;;1.92;;
23722;SDS011;12042;52.136;5.584;2022-07-23T17:43:46;2.08;;;1.95;;
23722;SDS011;12042;52.136;5.584;2022-07-23T17:46:12;2.00;;;1.90;;
23722;SDS011;12042;52.136;5.584;2022-07-23T17:48:37;3.35;;;2.30;;
23722;SDS011;12042;52.136;5.584;2022-07-23T17:51:06;2.30;;;2.20;;
23722;SDS011;12042;52.136;5.584;2022-07-23T17:53:32;2.50;;;2.20;;
23722;SDS011;12042;52.136;5.584;2022-07-23T17:55:59;1.90;;;1.80;;
23722;SDS011;12042;52.136;5.584;2022-07-23T17:58:25;3.05;;;2.10;;
23722;SDS011;12042;52.136;5.584;2022-07-23T18:00:51;4.82;;;2.35;;
23722;SDS011;12042;52.136;5.584;2022-07-23T18:03:17;4.28;;;2.40;;
23722;SDS011;12042;52.136;5.584;2022-07-23T18:05:43;2.33;;;2.22;;
23722;SDS011;12042;52.136;5.584;2022-07-23T18:08:08;3.58;;;2.38;;
23722;SDS011;12042;52.136;5.584;2022-07-23T18:10:34;2.50;;;2.40;;
23722;SDS011;12042;52.136;5.584;2022-07-23T18:13:01;2.47;;;2.22;;
23722;SDS011;12042;52.136;5.584;2022-07-23T18:15:28;2.40;;;2.20;;
23722;SDS011;12042;52.136;5.584;2022-07-23T18:17:54;3.03;;;2.50;;
23722;SDS011;12042;52.136;5.584;2022-07-23T18:20:19;2.28;;;1.98;;
23722;SDS011;12042;52.136;5.584;2022-07-23T18:22:45;2.10;;;2.00;;
23722;SDS011;12042;52.136;5.584;2022-07-23T18:25:11;2.83;;;2.63;;
23722;SDS011;12042;52.136;5.584;2022-07-23T18:27:37;3.67;;;3.40;;
23722;SDS011;12042;52.136;5.584;2022-07-23T18:30:03;3.70;;;3.40;;
23722;SDS011;12042;52.136;5.584;2022-07-23T18:32:30;5.35;;;5.05;;
23722;SDS011;12042;52.136;5.584;2022-07-23T18:34:56;4.15;;;3.85;;
23722;SDS011;12042;52.136;5.584;2022-07-23T18:37:23;3.08;;;2.88;;
23722;SDS011;12042;52.136;5.584;2022-07-23T18:39:49;3.17;;;2.97;;
23722;SDS011;12042;52.136;5.584;2022-07-23T18:42:15;3.67;;;3.17;;
23722;SDS011;12042;52.136;5.584;2022-07-23T18:44:41;3.25;;;3.00;;
23722;SDS011;12042;52.136;5.584;2022-07-23T18:47:06;2.95;;;2.72;;
23722;SDS011;12042;52.136;5.584;2022-07-23T18:49:32;2.40;;;2.28;;
23722;SDS011;12042;52.136;5.584;2022-07-23T18:51:58;3.10;;;2.80;;
23722;SDS011;12042;52.136;5.584;2022-07-23T18:54:24;4.80;;;2.70;;
23722;SDS011;12042;52.136;5.584;2022-07-23T18:56:50;3.45;;;3.20;;
23722;SDS011;12042;52.136;5.584;2022-07-23T18:59:16;3.38;;;2.58;;
23722;SDS011;12042;52.136;5.584;2022-07-23T19:01:41;2.67;;;2.47;;
23722;SDS011;12042;52.136;5.584;2022-07-23T19:04:08;2.40;;;2.20;;
23722;SDS011;12042;52.136;5.584;2022-07-23T19:06:33;2.40;;;2.20;;
23722;SDS011;12042;52.136;5.584;2022-07-23T19:08:59;2.78;;;2.25;;
23722;SDS011;12042;52.136;5.584;2022-07-23T19:11:25;2.42;;;2.03;;
23722;SDS011;12042;52.136;5.584;2022-07-23T19:13:51;4.13;;;2.40;;
23722;SDS011;12042;52.136;5.584;2022-07-23T19:16:17;2.47;;;2.28;;
23722;SDS011;12042;52.136;5.584;2022-07-23T19:18:43;2.25;;;1.98;;
23722;SDS011;12042;52.136;5.584;2022-07-23T19:21:09;3.25;;;2.20;;
23722;SDS011;12042;52.136;5.584;2022-07-23T19:23:35;2.78;;;2.30;;
23722;SDS011;12042;52.136;5.584;2022-07-23T19:26:01;3.05;;;2.20;;
23722;SDS011;12042;52.136;5.584;2022-07-23T19:28:27;2.65;;;2.30;;
23722;SDS011;12042;52.136;5.584;2022-07-23T19:30:53;2.70;;;2.50;;
23722;SDS011;12042;52.136;5.584;2022-07-23T19:33:19;2.58;;;2.38;;
23722;SDS011;12042;52.136;5.584;2022-07-23T19:35:44;2.17;;;2.08;;
23722;SDS011;12042;52.136;5.584;2022-07-23T19:38:12;2.95;;;2.75;;
23722;SDS011;12042;52.136;5.584;2022-07-23T19:40:38;2.88;;;2.67;;
23722;SDS011;12042;52.136;5.584;2022-07-23T19:43:03;2.83;;;2.63;;
23722;SDS011;12042;52.136;5.584;2022-07-23T19:45:29;3.88;;;2.88;;
23722;SDS011;12042;52.136;5.584;2022-07-23T19:47:54;3.10;;;2.90;;
23722;SDS011;12042;52.136;5.584;2022-07-23T19:50:20;3.47;;;2.70;;
23722;SDS011;12042;52.136;5.584;2022-07-23T19:52:47;3.03;;;2.83;;
23722;SDS011;12042;52.136;5.584;2022-07-23T19:55:13;3.45;;;3.10;;
23722;SDS011;12042;52.136;5.584;2022-07-23T19:57:39;3.90;;;3.65;;
23722;SDS011;12042;52.136;5.584;2022-07-23T20:00:05;6.07;;;3.67;;
23722;SDS011;12042;52.136;5.584;2022-07-23T20:02:35;3.83;;;3.55;;
23722;SDS011;12042;52.136;5.584;2022-07-23T20:05:02;5.95;;;4.30;;
23722;SDS011;12042;52.136;5.584;2022-07-23T20:07:28;4.35;;;3.90;;
23722;SDS011;12042;52.136;5.584;2022-07-23T20:09:54;4.97;;;3.80;;
23722;SDS011;12042;52.136;5.584;2022-07-23T20:12:19;5.25;;;4.90;;
23722;SDS011;12042;52.136;5.584;2022-07-23T20:14:45;4.97;;;4.53;;
23722;SDS011;12042;52.136;5.584;2022-07-23T20:17:10;6.90;;;4.82;;
23722;SDS011;12042;52.136;5.584;2022-07-23T20:19:36;4.50;;;4.30;;
23722;SDS011;12042;52.136;5.584;2022-07-23T20:22:02;4.03;;;3.83;;
23722;SDS011;12042;52.136;5.584;2022-07-23T20:24:27;4.63;;;4.22;;
23722;SDS011;12042;52.136;5.584;2022-07-23T20:26:53;7.78;;;4.70;;
23722;SDS011;12042;52.136;5.584;2022-07-23T20:29:19;4.60;;;4.20;;
23722;SDS011;12042;52.136;5.584;2022-07-23T20:31:46;5.55;;;4.60;;
23722;SDS011;12042;52.136;5.584;2022-07-23T20:34:12;4.93;;;3.78;;
23722;SDS011;12042;52.136;5.584;2022-07-23T20:36:38;3.70;;;3.40;;
23722;SDS011;12042;52.136;5.584;2022-07-23T20:39:05;3.70;;;3.30;;
23722;SDS011;12042;52.136;5.584;2022-07-23T20:41:35;3.28;;;3.08;;
23722;SDS011;12042;52.136;5.584;2022-07-23T20:44:01;4.03;;;3.72;;
23722;SDS011;12042;52.136;5.584;2022-07-23T20:46:27;3.95;;;3.63;;
23722;SDS011;12042;52.136;5.584;2022-07-23T20:48:53;3.30;;;3.10;;
23722;SDS011;12042;52.136;5.584;2022-07-23T20:51:20;3.80;;;3.17;;
23722;SDS011;12042;52.136;5.584;2022-07-23T20:53:46;3.60;;;3.30;;
23722;SDS011;12042;52.136;5.584;2022-07-23T20:56:12;4.07;;;3.45;;
23722;SDS011;12042;52.136;5.584;2022-07-23T20:58:37;4.13;;;3.55;;
23722;SDS011;12042;52.136;5.584;2022-07-23T21:01:03;4.10;;;3.80;;
23722;SDS011;12042;52.136;5.584;2022-07-23T21:03:29;4.18;;;3.90;;
23722;SDS011;12042;52.136;5.584;2022-07-23T21:05:55;4.82;;;3.85;;
23722;SDS011;12042;52.136;5.584;2022-07-23T21:08:21;5.03;;;4.57;;
23722;SDS011;12042;52.136;5.584;2022-07-23T21:10:47;4.38;;;4.07;;
23722;SDS011;12042;52.136;5.584;2022-07-23T21:13:12;4.57;;;4.28;;
23722;SDS011;12042;52.136;5.584;2022-07-23T21:15:38;4.38;;;4.15;;
23722;SDS011;12042;52.136;5.584;2022-07-23T21:18:03;4.20;;;4.00;;
23722;SDS011;12042;52.136;5.584;2022-07-23T21:20:29;4.10;;;3.90;;
23722;SDS011;12042;52.136;5.584;2022-07-23T21:23:15;4.25;;;3.88;;
23722;SDS011;12042;52.136;5.584;2022-07-23T21:25:41;4.25;;;3.95;;
23722;SDS011;12042;52.136;5.584;2022-07-23T21:28:06;4.43;;;4.10;;
23722;SDS011;12042;52.136;5.584;2022-07-23T21:30:32;4.68;;;3.80;;
23722;SDS011;12042;52.136;5.584;2022-07-23T21:32:57;4.40;;;4.10;;
23722;SDS011;12042;52.136;5.584;2022-07-23T21:35:23;4.30;;;4.10;;
23722;SDS011;12042;52.136;5.584;2022-07-23T21:37:49;4.50;;;4.13;;
23722;SDS011;12042;52.136;5.584;2022-07-23T21:40:14;4.30;;;4.00;;